Time;durP1;ratioP1;P1;durP2;ratioP2;P2;SDS_P1;SDS_P2;PMS_P1;PMS_P2;Temp;Humidity;BMP_temperature;BMP_pressure;BME280_temperature;BME280_humidity;BME280_pressure;Samples;Min_cycle;Max_cycle;Signal;HPM_P1;HPM_P2
2023/02/06 00:02:08;;;;;;;19.43;7.53;;;;;;;-1.39;77.34;101629.97;124635;1098;103937;-73
2023/02/06 00:04:40;;;;;;;21.97;8.83;;;;;;;-1.39;76.68;101634.23;124652;1099;103942;-75
2023/02/06 00:07:12;;;;;;;18.73;8.27;;;;;;;-1.38;76.39;101636.06;124638;1099;104041;-75
2023/02/06 00:09:44;;;;;;;18.13;8.17;;;;;;;-1.38;76.51;101638.63;124640;1099;101601;-75
2023/02/06 00:12:16;;;;;;;17.93;7.50;;;;;;;-1.38;75.85;101638.63;124654;1098;104018;-75
2023/02/06 00:14:49;;;;;;;19.80;8.23;;;;;;;-1.36;76.49;101638.02;124680;1099;101695;-75
2023/02/06 00:17:21;;;;;;;17.40;8.07;;;;;;;-1.36;76.61;101639.69;124616;1099;104054;-75
2023/02/06 00:19:53;;;;;;;20.10;7.87;;;;;;;-1.33;76.17;101645.15;124633;1099;101683;-75
2023/02/06 00:22:25;;;;;;;17.93;7.63;;;;;;;-1.33;76.16;101635.75;124682;1099;104076;-75
2023/02/06 00:24:57;;;;;;;18.77;7.67;;;;;;;-1.31;76.22;101635.91;124629;1099;104003;-75
2023/02/06 00:27:30;;;;;;;17.47;7.77;;;;;;;-1.28;75.72;101638.78;124726;1099;103945;-75
2023/02/06 00:30:04;;;;;;;18.00;7.43;;;;;;;-1.28;76.09;101633.64;124662;1099;103942;-75
2023/02/06 00:32:37;;;;;;;17.83;7.70;;;;;;;-1.28;75.87;101639.72;124589;1099;103974;-76
2023/02/06 00:35:11;;;;;;;20.00;8.60;;;;;;;-1.27;75.65;101643.20;124598;1099;104089;-75
2023/02/06 00:37:44;;;;;;;;;;;;;;;-1.27;76.25;101645.77;124640;1099;103989;-75
2023/02/06 00:40:16;;;;;;;17.97;7.30;;;;;;;-1.30;76.47;101646.36;124665;1099;101654;-75
2023/02/06 00:42:49;;;;;;;18.63;7.60;;;;;;;-1.30;76.88;101648.03;124623;1099;103980;-75
2023/02/06 00:45:21;;;;;;;20.47;7.97;;;;;;;-1.30;76.27;101650.61;124578;1099;103990;-75
2023/02/06 00:47:53;;;;;;;18.60;7.77;;;;;;;-1.29;76.67;101644.72;124686;1099;104037;-75
2023/02/06 00:50:26;;;;;;;20.33;8.03;;;;;;;-1.28;75.95;101650.02;124645;1099;104069;-75
2023/02/06 00:52:58;;;;;;;18.73;7.77;;;;;;;-1.27;76.29;101648.34;124697;1099;104059;-75
2023/02/06 00:55:30;;;;;;;18.87;8.00;;;;;;;-1.34;77.03;101641.67;124660;1099;101793;-75
2023/02/06 00:58:02;;;;;;;19.67;8.03;;;;;;;-1.28;76.64;101649.09;124630;1099;103903;-75
2023/02/06 01:00:35;;;;;;;22.23;8.97;;;;;;;-1.30;76.92;101650.61;124623;1099;104031;-75
2023/02/06 01:03:07;;;;;;;21.97;9.77;;;;;;;-1.31;77.30;101641.05;124408;1099;104012;-75
2023/02/06 01:05:41;;;;;;;25.32;9.95;;;;;;;-1.34;78.72;101651.97;124570;1099;101775;-75
2023/02/06 01:08:13;;;;;;;23.53;10.23;;;;;;;-1.34;76.57;101649.41;124654;1099;103999;-76
2023/02/06 01:10:46;;;;;;;22.33;9.90;;;;;;;-1.34;76.30;101651.97;124634;1098;104034;-74
2023/02/06 01:13:18;;;;;;;18.33;7.70;;;;;;;-1.33;78.44;101651.20;124700;1099;104050;-74
2023/02/06 01:15:51;;;;;;;23.60;9.05;;;;;;;-1.32;76.74;101658.18;124597;1099;103999;-75
2023/02/06 01:18:23;;;;;;;19.93;8.97;;;;;;;-1.32;76.43;101657.28;124677;1099;102424;-75
2023/02/06 01:20:55;;;;;;;19.10;7.90;;;;;;;-1.33;77.09;101651.20;124670;1099;102664;-75
2023/02/06 01:23:28;;;;;;;19.47;7.90;;;;;;;-1.31;76.51;101651.35;124627;1099;101768;-75
2023/02/06 01:26:04;;;;;;;18.73;8.23;;;;;;;-1.30;76.57;101650.61;124661;1099;104069;-75
2023/02/06 01:28:39;;;;;;;18.80;7.20;;;;;;;-1.28;76.77;101649.09;124643;1099;103974;-75
2023/02/06 01:31:16;;;;;;;17.53;6.93;;;;;;;-1.29;77.12;101658.49;124614;1098;104069;-75
2023/02/06 01:33:51;;;;;;;16.93;6.50;;;;;;;-1.31;77.82;101659.08;124614;1098;104019;-75
2023/02/06 01:36:24;;;;;;;19.30;7.80;;;;;;;-1.33;76.95;101650.30;124551;1099;103883;-75
2023/02/06 01:38:56;;;;;;;19.33;8.10;;;;;;;-1.34;77.42;101653.62;124633;1099;101670;-75
2023/02/06 01:41:29;;;;;;;18.77;7.40;;;;;;;-1.34;77.21;101658.77;124594;1099;104062;-75
2023/02/06 01:44:14;;;;;;;18.43;7.47;;;;;;;-1.38;77.02;101651.51;124617;1099;103993;-75
2023/02/06 01:46:48;;;;;;;20.17;8.03;;;;;;;-1.38;76.18;101652.41;124661;1099;104031;-75
2023/02/06 01:49:21;;;;;;;;;;;;;;;-1.41;76.87;101657.24;124671;1099;103961;-75
2023/02/06 01:51:57;;;;;;;16.67;6.43;;;;;;;-1.45;77.52;101661.18;124690;1099;104194;-75
2023/02/06 01:54:29;;;;;;;18.80;6.87;;;;;;;-1.46;77.35;101666.17;124617;1099;104041;-75
2023/02/06 01:57:05;;;;;;;20.67;7.57;;;;;;;-1.52;77.98;101679.31;124659;1099;104030;-75
2023/02/06 01:59:41;;;;;;;19.77;7.83;;;;;;;-1.57;77.43;101669.28;124248;1099;103938;-75
2023/02/06 02:02:14;;;;;;;18.57;6.87;;;;;;;-1.62;77.30;101668.84;124652;1099;104073;-75
2023/02/06 02:04:47;;;;;;;18.83;7.57;;;;;;;-1.62;77.84;101681.72;124702;1099;103868;-74
2023/02/06 02:07:23;;;;;;;19.10;8.10;;;;;;;-1.64;77.20;101678.05;124636;1099;104033;-75
2023/02/06 02:09:57;;;;;;;17.43;6.87;;;;;;;-1.66;78.31;101674.42;124646;1099;104417;-75
2023/02/06 02:12:32;;;;;;;19.57;8.20;;;;;;;-1.69;76.84;101685.30;124604;1099;104086;-75
2023/02/06 02:15:06;;;;;;;20.63;7.87;;;;;;;-1.72;77.41;101681.50;124633;1099;103852;-75
2023/02/06 02:17:50;;;;;;;19.48;7.85;;;;;;;-1.71;76.83;101683.34;124661;1099;103939;-75
2023/02/06 02:20:55;;;;;;;19.30;7.35;;;;;;;-1.70;77.23;101692.86;124699;1099;111575;-75
2023/02/06 02:23:36;;;;;;;21.07;8.20;;;;;;;-1.74;77.80;101686.50;124758;1099;104024;-76
2023/02/06 02:26:57;;;;;;;21.10;8.27;;;;;;;-1.74;77.25;101694.22;124594;1098;103948;-75
2023/02/06 02:30:09;;;;;;;20.10;7.80;;;;;;;-1.72;77.56;101710.71;124590;1099;103954;-75
2023/02/06 02:33:11;;;;;;;19.43;7.33;;;;;;;-1.74;77.01;101706.18;124632;1099;104393;-75
2023/02/06 02:35:51;;;;;;;20.70;7.90;;;;;;;-1.76;77.53;101708.59;124534;1099;104043;-75
2023/02/06 02:38:36;;;;;;;21.70;8.83;;;;;;;-1.78;77.80;101707.50;124607;1099;104532;-75
2023/02/06 02:41:15;;;;;;;22.30;8.47;;;;;;;-1.75;76.80;101714.64;124649;1099;117658;-75
2023/02/06 02:43:56;;;;;;;22.20;9.03;;;;;;;-1.78;76.70;101715.22;124672;1098;103990;-75
2023/02/06 02:46:32;;;;;;;23.50;9.57;;;;;;;-1.79;77.03;101715.06;124293;1099;103942;-75
2023/02/06 02:49:09;;;;;;;24.00;9.40;;;;;;;-1.79;76.69;101717.63;124614;1099;102084;-75
2023/02/06 02:51:43;;;;;;;21.87;8.93;;;;;;;-1.78;77.09;101724.61;124619;1099;104006;-75
2023/02/06 02:54:15;;;;;;;20.15;8.05;;;;;;;-1.79;76.83;101722.78;124612;1099;103938;-75
2023/02/06 02:56:48;;;;;;;21.27;8.97;;;;;;;-1.80;77.57;101729.60;124599;1099;101679;-75
2023/02/06 02:59:25;;;;;;;23.17;9.10;;;;;;;-1.84;77.27;101728.37;124604;1099;104099;-75
2023/02/06 03:02:05;;;;;;;23.67;8.97;;;;;;;-1.87;76.83;101724.55;124587;1099;104062;-75
2023/02/06 03:04:51;;;;;;;22.73;9.37;;;;;;;-1.90;77.11;101738.03;124632;1099;103974;-75
2023/02/06 03:07:33;;;;;;;22.97;8.80;;;;;;;-1.94;77.66;101745.27;124622;1099;104040;-75
2023/02/06 03:10:12;;;;;;;20.73;8.20;;;;;;;-1.97;77.82;101738.12;124643;1099;104021;-75
2023/02/06 03:12:51;;;;;;;23.03;8.67;;;;;;;-1.99;77.27;101745.67;124549;1099;101648;-75
2023/02/06 03:15:30;;;;;;;23.13;9.33;;;;;;;-2.00;77.21;101738.70;124607;1099;104037;-75
2023/02/06 03:18:08;;;;;;;24.37;10.07;;;;;;;-2.01;76.53;101734.32;124620;1099;104021;-74
2023/02/06 03:20:44;;;;;;;22.40;9.23;;;;;;;-2.03;76.22;101733.23;124544;1099;101929;-75
2023/02/06 03:23:20;;;;;;;22.93;8.87;;;;;;;-2.05;77.15;101729.59;124638;1099;104038;-74
2023/02/06 03:25:56;;;;;;;21.77;9.10;;;;;;;-2.05;76.22;101729.59;124645;1099;103938;-75
2023/02/06 03:28:32;;;;;;;21.13;8.80;;;;;;;-2.05;76.44;101733.84;124632;1099;104029;-75
2023/02/06 03:31:09;;;;;;;21.43;9.10;;;;;;;-2.05;76.17;101737.31;124661;1099;101644;-75
2023/02/06 03:33:48;;;;;;;24.57;9.63;;;;;;;-2.05;76.48;101733.84;124631;1099;103970;-75
2023/02/06 03:36:21;;;;;;;22.05;9.60;;;;;;;-2.05;76.10;101733.84;124584;1098;102602;-75
2023/02/06 03:38:54;;;;;;;21.33;9.07;;;;;;;-2.03;76.95;101742.61;124745;1099;103955;-75
2023/02/06 03:41:30;;;;;;;22.15;8.95;;;;;;;-2.01;76.48;101733.39;124619;1099;103967;-75
2023/02/06 03:44:06;;;;;;;20.23;8.10;;;;;;;-2.02;76.27;101734.16;124630;1098;104066;-75
2023/02/06 03:46:41;;;;;;;19.75;7.35;;;;;;;-2.03;77.26;101755.48;124671;1099;104200;-75
2023/02/06 03:49:17;;;;;;;22.67;9.53;;;;;;;-2.04;77.57;101739.14;124671;1099;104437;-75
2023/02/06 03:51:53;;;;;;;21.87;8.63;;;;;;;-2.01;76.66;101738.53;124653;1099;104290;-75
2023/02/06 03:54:28;;;;;;;21.60;7.60;;;;;;;-2.01;77.75;101742.05;124618;1099;103974;-75
2023/02/06 03:57:03;;;;;;;24.27;9.77;;;;;;;-2.01;77.26;101747.19;124683;1099;101590;-74
2023/02/06 03:59:35;;;;;;;24.00;9.37;;;;;;;-2.00;77.04;101750.66;124681;1098;103433;-75
2023/02/06 04:02:08;;;;;;;25.47;9.87;;;;;;;-2.01;76.76;101747.19;124617;1099;102533;-75
2023/02/06 04:04:42;;;;;;;24.93;10.67;;;;;;;-2.01;77.43;101748.83;124661;1098;101612;-75
2023/02/06 04:07:19;;;;;;;24.43;10.10;;;;;;;-1.99;77.63;101752.49;124611;1099;103987;-75
2023/02/06 04:09:51;;;;;;;24.17;9.90;;;;;;;-1.99;77.08;101761.11;124615;1099;103941;-75
2023/02/06 04:12:25;;;;;;;23.87;9.97;;;;;;;-1.97;77.43;101757.80;124660;1099;101860;-75
2023/02/06 04:14:57;;;;;;;20.57;8.33;;;;;;;-1.97;76.94;101756.13;124653;1099;103833;-74
2023/02/06 04:17:29;;;;;;;23.10;8.83;;;;;;;-2.00;77.13;101759.28;124660;1098;103942;-75
2023/02/06 04:20:01;;;;;;;20.77;8.90;;;;;;;-1.98;77.54;101764.58;124652;1099;104481;-74
2023/02/06 04:22:34;;;;;;;22.13;8.70;;;;;;;-1.97;77.24;101763.84;124695;1098;104034;-74
2023/02/06 04:25:07;;;;;;;22.00;8.73;;;;;;;-1.98;78.22;101769.73;124639;1096;103939;-74
2023/02/06 04:27:39;;;;;;;21.03;8.27;;;;;;;-2.01;78.86;101771.98;124649;1099;104038;-74
2023/02/06 04:30:16;;;;;;;21.63;8.40;;;;;;;-2.00;78.00;101776.38;124655;1099;103921;-74
2023/02/06 04:32:48;;;;;;;20.70;8.33;;;;;;;-1.99;77.20;101775.64;124634;1099;104510;-74
2023/02/06 04:35:20;;;;;;;23.05;9.25;;;;;;;-1.99;77.17;101780.79;124688;1099;101827;-75
2023/02/06 04:37:53;;;;;;;25.20;9.57;;;;;;;-2.00;77.38;101782.42;124702;1099;101749;-74
2023/02/06 04:40:25;;;;;;;22.50;8.93;;;;;;;-2.00;77.24;101790.14;124656;1098;104063;-75
2023/02/06 04:42:57;;;;;;;21.67;8.83;;;;;;;-1.96;77.03;101793.05;124705;1099;103983;-76
2023/02/06 04:45:29;;;;;;;24.77;8.57;;;;;;;-1.97;77.26;101787.00;124657;1099;103961;-76
2023/02/06 04:48:01;;;;;;;22.10;9.10;;;;;;;-1.97;76.88;101792.14;124717;1099;101721;-76
2023/02/06 04:50:34;;;;;;;22.63;9.17;;;;;;;-1.97;76.65;101789.57;124708;1098;104143;-76
2023/02/06 04:53:06;;;;;;;24.67;9.17;;;;;;;-1.94;77.08;101804.44;124687;1099;104025;-77
2023/02/06 04:55:38;;;;;;;22.23;8.67;;;;;;;-1.94;77.56;101791.56;124690;1099;103970;-76
2023/02/06 04:58:11;;;;;;;23.23;8.80;;;;;;;-1.94;77.59;101794.14;124768;1099;103951;-76
2023/02/06 05:00:43;;;;;;;21.30;8.43;;;;;;;-1.96;76.99;101801.70;124738;1099;101621;-76
2023/02/06 05:03:15;;;;;;;21.80;8.93;;;;;;;-1.95;76.87;101800.02;124747;1099;104037;-76
2023/02/06 05:05:47;;;;;;;24.47;9.67;;;;;;;-1.95;77.62;101798.35;124774;1099;104031;-76
2023/02/06 05:08:19;;;;;;;23.40;8.77;;;;;;;-1.95;77.10;101798.35;124699;1099;104019;-76
2023/02/06 05:10:52;;;;;;;24.80;10.00;;;;;;;-1.94;77.77;101805.33;124817;1099;103952;-78
2023/02/06 05:13:24;;;;;;;22.80;9.33;;;;;;;-1.92;77.68;101814.11;124885;1099;103939;-78
2023/02/06 05:16:00;;;;;;;25.30;10.30;;;;;;;-1.91;77.55;101807.33;124936;1099;101758;-78
2023/02/06 05:18:32;;;;;;;24.15;10.25;;;;;;;-1.91;77.56;101807.33;124913;1099;103941;-77
2023/02/06 05:21:05;;;;;;;26.77;10.70;;;;;;;-1.90;76.88;101825.50;124882;1099;104079;-78
2023/02/06 05:23:37;;;;;;;25.27;10.47;;;;;;;-1.90;77.28;101840.94;124913;1099;104045;-78
2023/02/06 05:26:09;;;;;;;26.50;10.43;;;;;;;-1.91;76.93;101833.96;124807;1099;102616;-78
2023/02/06 05:28:42;;;;;;;25.07;9.43;;;;;;;-1.92;76.83;101829.55;124908;1099;101778;-77
2023/02/06 05:31:18;;;;;;;24.83;10.17;;;;;;;-1.91;77.42;101836.53;124827;1099;101711;-77
2023/02/06 05:33:51;;;;;;;25.30;10.20;;;;;;;-1.91;76.86;101848.50;124927;1099;101669;-79
2023/02/06 05:36:24;;;;;;;25.77;10.73;;;;;;;-1.90;77.43;101842.58;124992;1098;103929;-77
2023/02/06 05:38:56;;;;;;;27.13;11.67;;;;;;;-1.92;76.65;101834.70;124891;1099;104025;-78
2023/02/06 05:41:28;;;;;;;25.73;10.40;;;;;;;-1.90;76.95;101846.09;124885;1099;104066;-78
2023/02/06 05:44:00;;;;;;;24.83;10.43;;;;;;;-1.91;77.40;101846.83;124977;1099;103146;-78
2023/02/06 05:46:33;;;;;;;26.63;10.67;;;;;;;-1.92;77.61;101844.98;125152;1099;104002;-78
2023/02/06 05:49:05;;;;;;;22.57;9.77;;;;;;;-1.91;77.19;101840.78;125017;1099;102213;-77
2023/02/06 05:51:38;;;;;;;24.20;8.47;;;;;;;-1.94;78.00;101846.50;124974;1099;103967;-78
2023/02/06 05:54:10;;;;;;;28.53;10.57;;;;;;;-1.93;77.53;101843.19;125019;1099;104051;-79
2023/02/06 05:56:42;;;;;;;28.57;11.80;;;;;;;-1.92;78.07;101847.56;124964;1099;104048;-76
2023/02/06 05:59:14;;;;;;;26.43;12.20;;;;;;;-1.91;77.40;101844.25;124904;1099;103990;-78
2023/02/06 06:01:46;;;;;;;32.73;14.33;;;;;;;-1.88;77.76;101852.30;124931;1098;103946;-77
2023/02/06 06:04:19;;;;;;;30.97;13.17;;;;;;;-1.88;77.91;101852.30;124841;1098;101705;-76
2023/02/06 06:06:51;;;;;;;28.73;12.63;;;;;;;-1.86;78.31;101852.46;124884;1098;101865;-78
2023/02/06 06:09:24;;;;;;;28.90;11.60;;;;;;;-1.85;77.93;101851.73;124902;1098;101848;-76
2023/02/06 06:11:56;;;;;;;26.60;10.53;;;;;;;-1.85;78.72;101852.62;124971;1099;101786;-77
2023/02/06 06:14:30;;;;;;;29.43;11.90;;;;;;;-1.85;78.68;101856.87;124838;1099;104040;-74
2023/02/06 06:17:02;;;;;;;30.10;12.23;;;;;;;-1.84;78.12;101863.82;124911;1099;102274;-77
2023/02/06 06:19:34;;;;;;;27.37;11.30;;;;;;;-1.82;77.90;101865.82;125083;1099;102642;-77
2023/02/06 06:22:06;;;;;;;29.73;11.20;;;;;;;-1.81;78.66;101869.30;124944;1099;103836;-77
2023/02/06 06:24:39;;;;;;;25.53;10.50;;;;;;;-1.78;78.68;101863.58;124913;1099;103989;-75
2023/02/06 06:27:11;;;;;;;26.53;11.70;;;;;;;-1.75;78.72;101874.20;124950;1099;101615;-76
2023/02/06 06:29:44;;;;;;;29.30;12.70;;;;;;;-1.79;79.49;101877.17;124909;1099;104002;-74
2023/02/06 06:32:16;;;;;;;42.47;17.47;;;;;;;-1.81;78.81;101875.38;124945;1099;102621;-74
2023/02/06 06:34:48;;;;;;;33.10;13.87;;;;;;;-1.81;79.10;101877.95;125045;1099;102488;-75
2023/02/06 06:37:20;;;;;;;33.63;14.17;;;;;;;-1.84;78.98;101880.19;125045;1099;102346;-74
2023/02/06 06:39:53;;;;;;;28.80;12.33;;;;;;;-1.85;78.76;101893.80;125060;1098;102427;-74
2023/02/06 06:42:28;;;;;;;31.77;12.80;;;;;;;-1.86;78.84;101891.06;125100;1099;102090;-74
2023/02/06 06:45:00;;;;;;;32.70;13.60;;;;;;;-1.82;79.92;101894.13;124892;1099;103606;-74
2023/02/06 06:47:32;;;;;;;32.10;12.13;;;;;;;-1.76;78.92;101905.81;124975;1099;103432;-74
2023/02/06 06:50:05;;;;;;;32.27;13.60;;;;;;;-1.72;79.86;101905.41;125000;1099;103871;-76
2023/02/06 06:52:38;;;;;;;30.60;13.17;;;;;;;-1.71;78.71;101894.37;125039;1099;102365;-74
2023/02/06 06:55:10;;;;;;;29.23;12.17;;;;;;;-1.67;78.91;101917.09;125007;1099;103968;-76
2023/02/06 06:57:45;;;;;;;28.47;11.67;;;;;;;-1.67;78.70;101901.66;124885;1099;102818;-76
2023/02/06 07:00:19;;;;;;;30.72;12.75;;;;;;;-1.60;79.43;101905.82;124996;1099;101972;-75
2023/02/06 07:02:52;;;;;;;30.27;13.23;;;;;;;-1.56;78.81;101907.95;124990;1099;103110;-73
2023/02/06 07:05:25;;;;;;;20.82;8.23;;;;;;;-1.53;78.50;101901.45;124922;1099;104056;-75
2023/02/06 07:07:58;;;;;;;28.07;10.67;;;;;;;-1.46;77.99;101905.62;124927;1099;104015;-75
2023/02/06 07:10:30;;;;;;;23.37;8.97;;;;;;;-1.46;76.64;101911.67;124805;1099;102428;-74
2023/02/06 07:13:04;;;;;;;22.00;8.63;;;;;;;-1.42;76.56;101902.59;124916;1099;103849;-74
2023/02/06 07:15:39;;;;;;;23.37;9.50;;;;;;;-1.39;76.07;101909.74;124966;1099;103964;-74
2023/02/06 07:18:12;;;;;;;23.13;9.43;;;;;;;-1.34;75.84;101912.07;126675;1098;101228;-74
2023/02/06 07:20:44;;;;;;;22.07;8.73;;;;;;;-1.29;75.41;101925.44;126627;1099;102539;-74
2023/02/06 07:23:23;;;;;;;21.53;8.37;;;;;;;-1.27;75.66;101911.95;126221;1099;101980;-74
2023/02/06 07:26:01;;;;;;;23.90;8.80;;;;;;;-1.23;75.22;101904.54;126426;1098;102993;-75
2023/02/06 07:28:36;;;;;;;23.53;8.77;;;;;;;-1.14;74.60;101911.59;126623;1098;102392;-76
2023/02/06 07:31:12;;;;;;;20.70;8.30;;;;;;;-1.02;75.60;101919.67;126368;1099;102224;-75
2023/02/06 07:33:49;;;;;;;24.63;8.90;;;;;;;-1.02;73.94;101911.95;126114;1099;102237;-75
2023/02/06 07:36:25;;;;;;;22.13;7.47;;;;;;;-1.01;73.03;101911.20;126554;1098;102066;-74
2023/02/06 07:38:59;;;;;;;20.13;8.27;;;;;;;-1.02;74.22;101911.05;126540;1098;102481;-76
2023/02/06 07:41:32;;;;;;;20.12;7.90;;;;;;;-1.01;72.55;101907.70;126654;1098;102392;-77
2023/02/06 07:44:06;;;;;;;24.13;9.23;;;;;;;-1.00;73.38;101923.31;126879;1098;102514;-77
2023/02/06 07:46:41;;;;;;;20.85;8.65;;;;;;;-0.97;72.81;101909.85;126168;1099;102649;-77
2023/02/06 07:49:17;;;;;;;21.77;8.20;;;;;;;-0.95;73.09;101908.33;126801;1098;102590;-78
2023/02/06 07:51:51;;;;;;;20.77;8.00;;;;;;;-0.97;73.10;101918.48;126333;1099;102272;-79
2023/02/06 07:54:37;;;;;;;19.37;7.47;;;;;;;-0.91;72.98;101915.64;126728;1098;102335;-77
2023/02/06 07:57:25;;;;;;;21.50;8.07;;;;;;;-0.88;72.68;101908.23;125705;1099;111535;-78
2023/02/06 08:00:13;;;;;;;19.63;7.70;;;;;;;-0.79;72.09;101906.61;125339;1099;102684;-80
2023/02/06 08:03:03;;;;;;;19.43;8.37;;;;;;;-0.74;71.02;101902.83;125419;1099;102216;-77
2023/02/06 08:05:40;;;;;;;21.73;8.00;;;;;;;-0.71;72.03;101894.52;125195;1099;103152;-77
2023/02/06 08:08:20;;;;;;;21.50;8.20;;;;;;;-0.69;71.51;101902.41;124952;1099;104671;-77
2023/02/06 08:11:14;;;;;;;21.43;8.30;;;;;;;-0.58;71.52;101901.83;125318;1099;104085;-78
2023/02/06 08:13:56;;;;;;;18.97;6.07;;;;;;;-0.68;68.07;101909.40;124870;1100;102585;-79
2023/02/06 08:16:29;;;;;;;19.47;7.80;;;;;;;-0.60;70.49;101911.09;125482;1099;102536;-76
2023/02/06 08:19:05;;;;;;;19.87;7.40;;;;;;;-0.52;70.51;101910.20;125333;1099;102642;-76
2023/02/06 08:21:38;;;;;;;18.77;7.10;;;;;;;-0.42;70.97;101912.05;125464;1099;102514;-76
2023/02/06 08:24:15;;;;;;;21.27;7.50;;;;;;;-0.38;70.39;101904.78;124932;1099;103476;-77
2023/02/06 08:26:59;;;;;;;17.70;7.13;;;;;;;-0.28;71.96;101910.88;125011;1099;101854;-82
2023/02/06 08:29:41;;;;;;;19.63;8.47;;;;;;;-0.23;70.49;101912.27;125416;1099;103774;-77
2023/02/06 08:32:15;;;;;;;20.70;7.20;;;;;;;-0.17;70.26;101920.64;125512;1098;102089;-76
2023/02/06 08:35:03;;;;;;;20.93;7.43;;;;;;;-0.15;69.68;101925.95;124972;1102;104466;-78
2023/02/06 08:37:42;;;;;;;20.13;8.50;;;;;;;-0.23;68.37;101918.34;125615;1099;103216;-79
2023/02/06 08:40:22;;;;;;;21.07;7.87;;;;;;;-0.16;69.76;101945.66;125217;1099;103956;-76
2023/02/06 08:43:00;;;;;;;15.57;5.60;;;;;;;-0.30;65.34;101941.67;125427;1099;103071;-78
2023/02/06 08:45:54;;;;;;;13.87;5.10;;;;;;;-0.27;65.68;101934.25;125157;1099;104044;-77
2023/02/06 08:48:34;;;;;;;15.07;5.83;;;;;;;-0.27;64.12;101930.77;125114;1099;103932;-77
2023/02/06 08:51:21;;;;;;;17.50;6.60;;;;;;;-0.17;65.09;101937.77;125133;1099;103408;-76
2023/02/06 08:54:03;;;;;;;16.40;6.47;;;;;;;-0.07;66.12;101933.69;125472;1099;104009;-77
2023/02/06 08:56:37;;;;;;;;;;;;;;;0.04;64.84;101942.52;125526;1098;103685;-76
2023/02/06 08:59:11;;;;;;;15.80;6.67;;;;;;;0.08;65.71;101936.92;125177;1099;102611;-77
2023/02/06 09:01:48;;;;;;;21.47;7.37;;;;;;;0.13;67.46;101942.55;125355;1099;104054;-77
2023/02/06 09:04:23;;;;;;;19.40;7.27;;;;;;;0.19;66.52;101945.75;125520;1099;103076;-78
2023/02/06 09:06:57;;;;;;;22.63;8.67;;;;;;;0.23;67.54;101942.69;125459;1099;102373;-77
2023/02/06 09:09:33;;;;;;;18.00;7.23;;;;;;;0.20;68.00;101956.97;125395;1099;102325;-76
2023/02/06 09:12:10;;;;;;;21.40;8.23;;;;;;;0.17;68.26;101942.08;125209;1099;103820;-75
2023/02/06 09:15:05;;;;;;;23.17;8.03;;;;;;;0.15;68.38;101959.09;125019;1099;102466;-78
2023/02/06 09:17:36;;;;;;;;;;;;;;;0.01;68.25;101933.56;125320;1099;104079;-76
2023/02/06 09:20:21;;;;;;;21.77;7.77;;;;;;;0.05;68.37;101936.61;125278;1099;102568;-76
2023/02/06 09:22:55;;;;;;;21.17;8.10;;;;;;;0.01;66.50;101934.47;125238;1099;104134;-77
2023/02/06 09:25:34;;;;;;;23.77;8.30;;;;;;;0.04;67.59;101924.45;125419;1099;103599;-77
2023/02/06 09:28:07;;;;;;;18.37;6.87;;;;;;;0.09;66.29;101930.08;125390;1099;102506;-78
2023/02/06 09:30:43;;;;;;;20.57;8.43;;;;;;;0.15;66.71;101926.43;124994;1099;102315;-76
2023/02/06 09:33:17;;;;;;;19.83;7.70;;;;;;;0.24;66.22;101922.97;125408;1099;104041;-77
2023/02/06 09:36:05;;;;;;;21.37;7.67;;;;;;;0.28;64.51;101927.66;125008;1099;103363;-76
2023/02/06 09:38:41;;;;;;;20.30;8.63;;;;;;;0.39;65.39;101918.40;125402;1099;103955;-76
2023/02/06 09:41:18;;;;;;;19.73;7.70;;;;;;;0.44;65.86;101923.27;125512;1099;102602;-78
2023/02/06 09:43:58;;;;;;;21.70;7.90;;;;;;;0.43;65.95;101923.12;125400;1099;103969;-74
2023/02/06 09:46:34;;;;;;;19.50;8.40;;;;;;;0.35;66.51;101933.59;125224;1099;103866;-75
2023/02/06 09:49:12;;;;;;;21.20;7.67;;;;;;;0.22;66.77;101930.56;125371;1099;102617;-75
2023/02/06 09:52:03;;;;;;;21.67;8.03;;;;;;;0.10;67.75;101924.17;125333;1099;101991;-77
2023/02/06 09:54:52;;;;;;;24.20;8.47;;;;;;;0.08;67.72;101923.08;125511;1099;102481;-77
2023/02/06 09:57:55;;;;;;;22.10;8.93;;;;;;;0.10;68.21;101917.33;125414;1099;103967;-77
2023/02/06 10:00:40;;;;;;;20.77;8.13;;;;;;;0.09;67.51;101918.08;124972;1099;102474;-75
2023/02/06 10:03:26;;;;;;;20.90;7.87;;;;;;;0.17;67.28;101911.09;125147;1098;104064;-76
2023/02/06 10:06:09;;;;;;;15.27;5.87;;;;;;;0.10;65.17;101908.69;125519;1099;102152;-77
2023/02/06 10:08:47;;;;;;;19.20;8.65;;;;;;;0.29;66.89;101901.99;125495;1099;104013;-76
2023/02/06 10:11:28;;;;;;;17.97;7.37;;;;;;;0.37;65.56;101899.27;124829;1099;103948;-76
2023/02/06 10:14:05;;;;;;;22.20;8.47;;;;;;;0.50;66.56;101895.47;124991;1099;103116;-76
2023/02/06 10:16:43;;;;;;;19.73;8.00;;;;;;;0.65;66.16;101887.39;125168;1099;103140;-75
2023/02/06 10:19:22;;;;;;;19.20;7.87;;;;;;;0.67;66.41;101884.20;125112;1098;102163;-75
2023/02/06 10:22:01;;;;;;;20.43;7.57;;;;;;;0.61;66.59;101899.11;125228;1099;102169;-75
2023/02/06 10:24:42;;;;;;;17.57;6.87;;;;;;;0.48;67.18;101901.23;125374;1099;102086;-78
2023/02/06 10:27:21;;;;;;;19.40;8.10;;;;;;;0.34;67.87;101902.45;125417;1099;103632;-78
2023/02/06 10:30:04;;;;;;;20.20;8.30;;;;;;;0.29;67.32;101898.51;125305;1099;103634;-75
2023/02/06 10:32:44;;;;;;;16.97;7.33;;;;;;;0.43;68.01;101899.88;125437;1099;103968;-76
2023/02/06 10:35:35;;;;;;;18.60;7.17;;;;;;;0.54;67.19;101912.17;125326;1098;102576;-77
2023/02/06 10:38:37;;;;;;;15.60;6.40;;;;;;;0.39;66.80;101927.08;125422;1099;102902;-76
2023/02/06 10:41:22;;;;;;;14.80;6.33;;;;;;;0.26;67.58;101912.02;125325;1099;103287;-76
2023/02/06 10:44:01;;;;;;;16.47;7.33;;;;;;;0.28;67.38;101900.19;124906;1099;104028;-75
2023/02/06 10:46:44;;;;;;;17.10;6.83;;;;;;;0.39;67.40;101897.73;125384;1099;103961;-76
2023/02/06 10:49:30;;;;;;;16.00;7.23;;;;;;;0.49;67.63;101887.56;125518;1099;102158;-76
2023/02/06 10:52:22;;;;;;;18.20;7.20;;;;;;;0.58;66.85;101880.72;125354;1099;103063;-78
2023/02/06 10:54:57;;;;;;;14.63;6.10;;;;;;;0.60;65.28;101886.94;125579;1099;104148;-77
2023/02/06 10:58:11;;;;;;;14.07;6.33;;;;;;;0.66;64.56;101872.03;125460;1098;103939;-76
2023/02/06 11:00:46;;;;;;;15.80;6.27;;;;;;;0.77;66.05;101886.00;125440;1099;103996;-75
2023/02/06 11:03:24;;;;;;;13.87;5.57;;;;;;;0.79;64.54;101886.15;125286;1099;103970;-76
2023/02/06 11:05:59;;;;;;;14.33;5.83;;;;;;;0.78;62.89;101904.98;125388;1098;102693;-77
2023/02/06 11:08:40;;;;;;;15.47;6.20;;;;;;;0.82;64.42;101899.37;125572;1099;102588;-78
2023/02/06 11:11:23;;;;;;;17.23;5.47;;;;;;;0.79;62.69;101887.05;125632;1099;103378;-77
2023/02/06 11:14:02;;;;;;;14.33;5.63;;;;;;;0.81;64.34;101895.88;125691;1099;104997;-77
2023/02/06 11:16:37;;;;;;;12.93;5.50;;;;;;;0.76;62.56;101902.25;125359;1099;102220;-76
2023/02/06 11:19:29;;;;;;;22.43;8.20;;;;;;;0.79;64.10;101901.66;125557;1099;102671;-76
2023/02/06 11:22:10;;;;;;;;;;;;;;;0.74;62.02;101908.95;125597;1099;103990;-76
2023/02/06 11:25:02;;;;;;;15.43;5.50;;;;;;;0.71;62.98;101878.55;125377;1099;102188;-77
2023/02/06 11:27:42;;;;;;;16.90;6.00;;;;;;;0.69;63.74;101903.34;125437;1099;102241;-77
2023/02/06 11:30:30;;;;;;;14.57;5.53;;;;;;;0.65;63.64;101897.72;125621;1099;104104;-77
2023/02/06 11:33:08;;;;;;;13.63;5.70;;;;;;;0.66;63.94;101902.14;125178;1099;103016;-77
2023/02/06 11:35:53;;;;;;;16.17;6.57;;;;;;;0.67;64.36;101901.36;125302;1099;103656;-77
2023/02/06 11:38:29;;;;;;;15.70;6.37;;;;;;;0.70;64.42;101891.32;125710;1098;102613;-77
2023/02/06 11:41:03;;;;;;;;;;;;;;;0.82;63.80;101902.84;125921;1099;103865;-76
2023/02/06 11:43:51;;;;;;;13.45;6.25;;;;;;;0.82;63.86;101913.19;125692;1099;102275;-77
2023/02/06 11:46:30;;;;;;;15.60;5.47;;;;;;;0.77;62.57;101900.60;125784;1099;102208;-76
2023/02/06 11:49:27;;;;;;;13.97;5.23;;;;;;;0.75;63.08;101902.11;125684;1099;103910;-76